createdAt,value
2023-04-28T00:00:14.650Z,8.07
2023-04-28T00:02:48.803Z,10.13
2023-04-28T00:05:22.299Z,9.43
2023-04-28T00:07:53.457Z,12.98
2023-04-28T00:10:23.584Z,10.80
2023-04-28T00:12:50.830Z,8.00
2023-04-28T00:15:19.063Z,7.13
2023-04-28T00:17:52.938Z,6.47
2023-04-28T00:20:20.265Z,5.35
2023-04-28T00:22:50.804Z,3.55
2023-04-28T00:25:21.486Z,3.60
2023-04-28T00:27:48.526Z,7.85
2023-04-28T00:30:19.082Z,8.15
2023-04-28T00:32:52.221Z,4.63
2023-04-28T00:35:31.174Z,6.10
2023-04-28T00:38:01.639Z,5.93
2023-04-28T00:40:35.549Z,4.93
2023-04-28T00:43:03.117Z,5.63
2023-04-28T00:45:33.559Z,7.88
2023-04-28T00:48:01.331Z,6.38
2023-04-28T00:50:31.732Z,8.00
2023-04-28T00:53:02.614Z,5.72
2023-04-28T00:55:33.325Z,3.50
2023-04-28T00:58:00.822Z,11.75
2023-04-28T01:00:27.836Z,5.47
2023-04-28T01:03:05.319Z,9.10
2023-04-28T01:05:33.111Z,6.55
2023-04-28T01:08:00.334Z,6.25
2023-04-28T01:10:27.795Z,10.98
2023-04-28T01:12:58.040Z,12.23
2023-04-28T01:15:25.116Z,12.88
2023-04-28T01:17:52.739Z,7.07
2023-04-28T01:20:20.130Z,11.55
2023-04-28T01:22:50.369Z,11.35
2023-04-28T01:25:17.749Z,4.93
2023-04-28T01:27:44.882Z,5.05
2023-04-28T01:30:12.484Z,7.78
2023-04-28T01:32:43.107Z,7.22
2023-04-28T01:35:10.272Z,4.68
2023-04-28T01:37:39.687Z,5.97
2023-04-28T01:40:07.321Z,3.08
2023-04-28T01:42:34.389Z,7.38
2023-04-28T01:45:05.983Z,5.40
2023-04-28T01:47:38.378Z,2.47
2023-04-28T01:50:06.757Z,3.20
2023-04-28T01:52:33.891Z,6.40
2023-04-28T01:55:01.036Z,3.40
2023-04-28T01:57:29.472Z,4.22
2023-04-28T01:59:59.839Z,8.93
2023-04-28T02:02:27.277Z,13.00
2023-04-28T02:04:54.318Z,8.55
2023-04-28T02:07:24.597Z,7.78
2023-04-28T02:09:51.619Z,2.97
2023-04-28T02:12:18.684Z,6.00
2023-04-28T02:14:49.086Z,3.63
2023-04-28T02:17:16.466Z,2.42
2023-04-28T02:19:43.816Z,3.58
2023-04-28T02:22:14.967Z,2.78
2023-04-28T02:24:47.952Z,4.65
2023-04-28T02:27:15.465Z,3.97
2023-04-28T02:29:42.588Z,4.40
2023-04-28T02:32:09.750Z,5.53
2023-04-28T02:34:36.889Z,4.40
2023-04-28T02:37:08.074Z,5.78
2023-04-28T02:39:35.305Z,7.82
2023-04-28T02:42:05.550Z,3.95
2023-04-28T02:44:32.679Z,6.80
2023-04-28T02:49:27.992Z,3.38
2023-04-28T02:51:55.567Z,4.88
2023-04-28T02:54:27.947Z,7.28
2023-04-28T02:57:00.532Z,3.58
2023-04-28T02:59:27.917Z,3.83
2023-04-28T03:01:54.958Z,5.35
2023-04-28T03:04:22.316Z,6.35
2023-04-28T03:06:49.713Z,4.95
2023-04-28T03:09:17.374Z,4.60
2023-04-28T03:11:44.446Z,5.47
2023-04-28T03:14:18.653Z,8.48
2023-04-28T03:16:46.044Z,5.53
2023-04-28T03:19:13.228Z,6.20
2023-04-28T03:21:40.864Z,5.15
2023-04-28T03:24:07.898Z,8.10
2023-04-28T03:26:35.921Z,4.20
2023-04-28T03:29:03.401Z,8.02
2023-04-28T03:31:32.658Z,3.47
2023-04-28T03:34:00.093Z,5.30
2023-04-28T03:36:27.870Z,7.18
2023-04-28T03:38:54.915Z,6.40
2023-04-28T03:41:22.251Z,4.22
2023-04-28T03:43:53.753Z,2.97
2023-04-28T03:46:24.611Z,5.78
2023-04-28T03:48:51.742Z,8.95
2023-04-28T03:51:18.916Z,3.42
2023-04-28T03:53:46.100Z,4.38
2023-04-28T03:56:13.646Z,4.82
2023-04-28T03:58:41.330Z,3.70
2023-04-28T04:01:08.714Z,3.90
2023-04-28T04:03:35.974Z,4.50
2023-04-28T04:06:03.617Z,7.72
2023-04-28T04:08:30.975Z,7.95
2023-04-28T04:10:58.217Z,4.07
2023-04-28T04:13:25.310Z,7.60
2023-04-28T04:15:52.882Z,4.97
2023-04-28T04:18:20.122Z,5.63
2023-04-28T04:20:46.978Z,6.57
2023-04-28T04:23:14.301Z,3.10
2023-04-28T04:25:44.885Z,5.68
2023-04-28T04:28:11.959Z,4.63
2023-04-28T04:30:42.104Z,4.60
2023-04-28T04:33:09.437Z,9.25
2023-04-28T04:35:36.405Z,9.80
2023-04-28T04:38:03.711Z,9.77
2023-04-28T04:40:30.516Z,8.77
2023-04-28T04:42:57.245Z,12.50
2023-04-28T04:45:24.004Z,10.38
2023-04-28T04:47:50.737Z,12.00
2023-04-28T04:50:17.754Z,7.57
2023-04-28T04:52:44.550Z,13.57
2023-04-28T04:55:11.427Z,8.48
2023-04-28T04:57:38.522Z,7.57
2023-04-28T05:00:06.043Z,7.15
2023-04-28T05:02:32.857Z,7.60
2023-04-28T05:05:08.534Z,8.90
2023-04-28T05:07:39.506Z,4.60
2023-04-28T05:10:07.772Z,2.75
2023-04-28T05:12:34.505Z,6.97
2023-04-28T05:15:01.205Z,10.43
2023-04-28T05:17:27.908Z,6.70
2023-04-28T05:19:54.608Z,11.75
2023-04-28T05:22:21.555Z,12.45
2023-04-28T05:24:48.257Z,14.55
2023-04-28T05:27:15.014Z,10.43
2023-04-28T05:29:42.378Z,2.83
2023-04-28T05:32:09.210Z,2.70
2023-04-28T05:34:35.975Z,4.28
2023-04-28T05:37:02.699Z,3.25
2023-04-28T05:39:29.362Z,8.75
2023-04-28T05:41:56.511Z,6.20
2023-04-28T05:44:23.194Z,4.55
2023-04-28T05:46:49.945Z,4.63
2023-04-28T05:49:16.936Z,4.45
2023-04-28T05:51:44.696Z,3.10
2023-04-28T05:54:11.599Z,5.85
2023-04-28T05:56:38.373Z,3.97
2023-04-28T05:59:05.304Z,3.17
2023-04-28T06:01:32.454Z,4.72
2023-04-28T06:03:59.512Z,4.28
2023-04-28T06:06:27.800Z,8.32
2023-04-28T06:08:54.935Z,5.50
2023-04-28T06:11:22.617Z,2.85
2023-04-28T06:13:52.402Z,3.50
2023-04-28T06:16:19.321Z,3.17
2023-04-28T06:18:47.337Z,2.13
2023-04-28T06:21:16.729Z,4.95
2023-04-28T06:23:43.501Z,3.90
2023-04-28T06:26:10.276Z,5.45
2023-04-28T06:28:36.982Z,3.25
2023-04-28T06:31:03.719Z,4.68
2023-04-28T06:33:30.822Z,3.38
2023-04-28T06:35:57.562Z,2.85
2023-04-28T06:38:24.441Z,2.60
2023-04-28T06:40:51.566Z,2.53
2023-04-28T06:43:18.275Z,3.28
2023-04-28T06:45:45.152Z,2.67
2023-04-28T06:48:12.149Z,10.30
2023-04-28T06:50:39.053Z,3.88
2023-04-28T06:53:06.105Z,4.07
2023-04-28T06:55:33.743Z,5.20
2023-04-28T06:58:00.493Z,6.68
2023-04-28T07:00:27.310Z,4.25
2023-04-28T07:02:54.262Z,3.22
2023-04-28T07:05:21.218Z,5.30
2023-04-28T07:07:47.989Z,6.90
2023-04-28T07:10:15.775Z,7.35
2023-04-28T07:12:42.697Z,2.92
2023-04-28T07:15:10.439Z,1.55
2023-04-28T07:17:37.647Z,4.20
2023-04-28T07:20:05.516Z,2.13
2023-04-28T07:22:32.453Z,2.53
2023-04-28T07:24:59.137Z,0.90
2023-04-28T07:27:25.883Z,1.90
2023-04-28T07:29:52.536Z,1.20
2023-04-28T07:32:19.639Z,1.05
2023-04-28T07:34:46.522Z,2.50
2023-04-28T07:37:13.343Z,2.47
2023-04-28T07:39:40.738Z,1.83
2023-04-28T07:42:07.732Z,1.17
2023-04-28T07:44:35.020Z,3.72
2023-04-28T07:47:02.405Z,1.20
2023-04-28T07:49:29.377Z,3.20
2023-04-28T07:51:56.931Z,2.58
2023-04-28T07:54:24.220Z,1.80
2023-04-28T07:56:51.347Z,3.08
2023-04-28T07:59:18.052Z,1.05
2023-04-28T08:01:44.766Z,1.38
2023-04-28T08:04:12.105Z,2.25
2023-04-28T08:06:40.099Z,1.23
2023-04-28T08:09:06.990Z,1.40
2023-04-28T08:11:34.599Z,0.60
2023-04-28T08:14:03.051Z,0.95
2023-04-28T08:16:31.391Z,0.57
2023-04-28T08:18:59.056Z,3.25
2023-04-28T08:21:26.990Z,1.17
2023-04-28T08:23:54.009Z,2.60
2023-04-28T08:26:20.886Z,2.35
2023-04-28T08:28:47.616Z,1.50
2023-04-28T08:31:14.469Z,0.90
2023-04-28T08:33:44.530Z,2.63
2023-04-28T08:36:15.170Z,1.70
2023-04-28T08:38:43.043Z,1.23
2023-04-28T08:41:09.947Z,0.80
2023-04-28T08:43:37.538Z,2.65
2023-04-28T08:46:07.126Z,4.13
2023-04-28T08:48:42.966Z,1.73
2023-04-28T08:51:13.395Z,2.17
2023-04-28T08:54:11.313Z,1.73
2023-04-28T08:56:31.868Z,1.25
2023-04-28T08:59:04.884Z,0.60
2023-04-28T09:01:32.509Z,0.65
2023-04-28T09:04:03.464Z,12.57
2023-04-28T09:06:37.462Z,1.08
2023-04-28T09:09:37.902Z,0.65
2023-04-28T09:14:34.652Z,1.60
2023-04-28T09:17:02.549Z,1.58
2023-04-28T09:19:38.090Z,0.73
2023-04-28T09:22:18.224Z,9.18
2023-04-28T09:24:53.228Z,9.48
2023-04-28T09:27:29.599Z,2.28
2023-04-28T09:29:56.735Z,1.40
2023-04-28T09:32:24.482Z,2.25
2023-04-28T09:34:53.970Z,12.73
2023-04-28T09:37:22.747Z,4.50
2023-04-28T09:39:51.305Z,0.77
2023-04-28T09:42:54.485Z,0.60
2023-04-28T09:45:21.310Z,2.03
2023-04-28T09:47:48.501Z,2.17
2023-04-28T09:50:18.269Z,2.05
2023-04-28T09:52:57.578Z,1.02
2023-04-28T09:55:25.202Z,2.53
2023-04-28T09:57:54.804Z,1.85
2023-04-28T10:00:23.820Z,1.33
2023-04-28T10:02:52.046Z,1.02
2023-04-28T10:05:19.778Z,0.65
2023-04-28T10:07:47.020Z,0.77
2023-04-28T10:10:14.790Z,1.52
2023-04-28T10:12:42.062Z,1.65
2023-04-28T10:15:10.378Z,1.17
2023-04-28T10:17:37.254Z,3.35
2023-04-28T10:20:06.378Z,2.72
2023-04-28T10:22:51.773Z,0.93
2023-04-28T10:25:32.773Z,0.82
2023-04-28T10:28:01.077Z,0.82
2023-04-28T10:30:31.360Z,1.63
2023-04-28T10:33:13.486Z,0.90
2023-04-28T10:35:45.170Z,1.58
2023-04-28T10:38:16.960Z,0.90
2023-04-28T10:40:44.776Z,1.50
2023-04-28T10:43:13.273Z,3.05
2023-04-28T10:45:49.365Z,2.53
2023-04-28T10:48:17.056Z,1.40
2023-04-28T10:51:09.749Z,1.60
2023-04-28T10:53:45.996Z,0.73
2023-04-28T10:56:16.911Z,0.77
2023-04-28T10:58:46.287Z,1.50
2023-04-28T11:01:22.343Z,1.25
2023-04-28T11:03:54.301Z,0.57
2023-04-28T11:06:26.951Z,2.72
2023-04-28T11:09:00.345Z,1.80
2023-04-28T11:11:36.392Z,2.70
2023-04-28T11:14:18.372Z,2.08
2023-04-28T11:17:01.842Z,1.27
2023-04-28T11:19:45.348Z,1.05
2023-04-28T11:22:20.305Z,1.50
2023-04-28T11:24:58.126Z,1.90
2023-04-28T11:27:34.526Z,2.05
2023-04-28T11:30:05.271Z,1.30
2023-04-28T11:32:32.928Z,2.40
2023-04-28T11:34:59.816Z,0.75
2023-04-28T11:37:27.310Z,0.70
2023-04-28T11:39:54.112Z,2.58
2023-04-28T11:42:21.304Z,3.65
2023-04-28T11:44:52.970Z,0.60
2023-04-28T11:47:31.357Z,1.67
2023-04-28T11:49:58.728Z,1.58
2023-04-28T11:52:27.302Z,1.55
2023-04-28T11:54:56.228Z,1.60
2023-04-28T11:57:23.450Z,1.48
2023-04-28T11:59:50.791Z,1.15
2023-04-28T12:02:25.563Z,0.70
2023-04-28T12:04:52.539Z,1.05
2023-04-28T12:07:19.849Z,2.40
2023-04-28T12:10:06.779Z,1.95
2023-04-28T12:15:06.214Z,3.47
2023-04-28T12:17:39.202Z,4.90
2023-04-28T12:20:08.251Z,1.88
2023-04-28T12:22:49.232Z,1.98
2023-04-28T12:25:17.778Z,3.03
2023-04-28T12:28:08.494Z,0.82
2023-04-28T12:30:42.453Z,0.80
2023-04-28T12:33:29.143Z,1.45
2023-04-28T12:35:59.048Z,0.80
2023-04-28T12:38:27.391Z,2.17
2023-04-28T12:40:54.991Z,1.70
2023-04-28T12:43:23.692Z,1.98
2023-04-28T12:45:55.362Z,2.88
2023-04-28T12:48:24.061Z,1.08
2023-04-28T12:50:50.812Z,2.83
2023-04-28T12:53:17.510Z,1.30
2023-04-28T12:55:44.238Z,2.80
2023-04-28T12:58:11.164Z,1.20
2023-04-28T13:00:38.266Z,0.80
2023-04-28T13:03:05.121Z,0.88
2023-04-28T13:05:32.290Z,1.80
2023-04-28T13:07:59.632Z,1.45
2023-04-28T13:10:26.892Z,5.55
2023-04-28T13:12:53.567Z,2.97
2023-04-28T13:15:20.467Z,0.63
2023-04-28T13:17:48.734Z,1.45
2023-04-28T13:20:15.536Z,1.58
2023-04-28T13:22:42.403Z,1.17
2023-04-28T13:25:09.726Z,1.33
2023-04-28T13:27:37.805Z,1.88
2023-04-28T13:30:05.557Z,3.70
2023-04-28T13:32:32.350Z,1.65
2023-04-28T13:34:59.193Z,2.95
2023-04-28T13:37:26.545Z,1.83
2023-04-28T13:39:53.281Z,2.72
2023-04-28T13:42:19.978Z,2.88
2023-04-28T13:44:49.097Z,1.83
2023-04-28T13:47:16.469Z,1.88
2023-04-28T13:49:43.691Z,2.38
2023-04-28T13:52:10.412Z,2.17
2023-04-28T13:54:37.358Z,1.73
2023-04-28T13:57:04.182Z,2.20
2023-04-28T13:59:31.058Z,1.67
2023-04-28T14:01:57.743Z,1.88
2023-04-28T14:04:24.518Z,2.33
2023-04-28T14:06:52.752Z,2.55
2023-04-28T14:09:19.500Z,1.60
2023-04-28T14:11:46.451Z,2.33
2023-04-28T14:14:13.323Z,1.65
2023-04-28T14:16:40.096Z,1.75
2023-04-28T14:19:07.344Z,1.13
2023-04-28T14:21:34.751Z,3.60
2023-04-28T14:24:01.505Z,4.00
2023-04-28T14:26:28.380Z,1.88
2023-04-28T14:28:55.260Z,2.88
2023-04-28T14:31:22.326Z,2.05
2023-04-28T14:33:49.063Z,1.65
2023-04-28T14:36:15.943Z,6.95
2023-04-28T14:38:42.764Z,1.73
2023-04-28T14:41:09.682Z,2.90
2023-04-28T14:43:36.426Z,3.85
2023-04-28T14:46:03.959Z,2.28
2023-04-28T14:48:32.523Z,5.75
2023-04-28T14:50:59.638Z,1.35
2023-04-28T14:53:26.354Z,1.77
2023-04-28T14:55:54.545Z,2.00
2023-04-28T14:58:21.506Z,2.13
2023-04-28T15:00:48.223Z,3.17
2023-04-28T15:03:15.595Z,1.92
2023-04-28T15:05:42.398Z,2.47
2023-04-28T15:08:09.086Z,2.42
2023-04-28T15:10:39.454Z,1.20
2023-04-28T15:13:09.392Z,1.25
2023-04-28T15:15:36.724Z,5.47
2023-04-28T15:18:04.564Z,7.28
2023-04-28T15:20:33.251Z,3.42
2023-04-28T15:23:00.870Z,4.57
2023-04-28T15:25:27.947Z,2.20
2023-04-28T15:27:55.108Z,3.38
2023-04-28T15:30:21.933Z,2.13
2023-04-28T15:32:50.381Z,2.80
2023-04-28T15:35:17.374Z,2.47
2023-04-28T15:37:47.491Z,3.65
2023-04-28T15:40:16.784Z,3.03
2023-04-28T15:42:52.199Z,6.47
2023-04-28T15:45:22.483Z,4.68
2023-04-28T15:47:51.042Z,1.58
2023-04-28T15:50:19.845Z,3.67
2023-04-28T15:52:48.453Z,2.42
2023-04-28T15:55:17.281Z,1.27
2023-04-28T15:57:44.498Z,1.92
2023-04-28T16:00:11.979Z,3.05
2023-04-28T16:02:39.331Z,2.22
2023-04-28T16:05:06.798Z,1.02
2023-04-28T16:07:41.243Z,1.88
2023-04-28T16:10:12.995Z,1.65
2023-04-28T16:12:40.800Z,1.73
2023-04-28T16:15:10.021Z,2.13
2023-04-28T16:17:38.321Z,4.07
2023-04-28T16:20:06.930Z,3.15
2023-04-28T16:22:33.857Z,2.72
2023-04-28T16:25:00.982Z,2.10
2023-04-28T16:27:27.739Z,2.67
2023-04-28T16:29:54.705Z,5.40
2023-04-28T16:32:21.584Z,1.08
2023-04-28T16:34:49.223Z,1.75
2023-04-28T16:37:16.497Z,2.28
2023-04-28T16:39:43.612Z,2.50
2023-04-28T16:42:10.627Z,1.23
2023-04-28T16:44:37.546Z,2.78
2023-04-28T16:47:04.568Z,1.92
2023-04-28T16:49:31.317Z,1.95
2023-04-28T16:52:04.233Z,2.13
2023-04-28T16:54:32.043Z,1.40
2023-04-28T16:57:00.275Z,2.25
2023-04-28T16:59:29.618Z,2.50
2023-04-28T17:02:00.895Z,3.75
2023-04-28T17:04:28.302Z,3.17
2023-04-28T17:06:55.428Z,1.73
2023-04-28T17:09:22.828Z,1.30
2023-04-28T17:11:49.942Z,1.98
2023-04-28T17:14:17.068Z,2.22
2023-04-28T17:16:44.155Z,2.88
2023-04-28T17:19:11.947Z,5.25
2023-04-28T17:21:38.899Z,1.23
2023-04-28T17:24:06.244Z,1.05
2023-04-28T17:26:33.180Z,1.60
2023-04-28T17:29:00.421Z,1.73
2023-04-28T17:31:28.910Z,1.05
2023-04-28T17:33:58.331Z,1.60
2023-04-28T17:36:28.909Z,2.08
2023-04-28T17:38:56.020Z,3.35
2023-04-28T17:41:23.139Z,4.80
2023-04-28T17:43:53.840Z,2.97
2023-04-28T17:46:21.850Z,3.50
2023-04-28T17:48:49.100Z,6.13
2023-04-28T17:51:16.116Z,2.42
2023-04-28T17:53:43.372Z,1.42
2023-04-28T17:56:10.934Z,1.50
2023-04-28T17:58:38.258Z,2.28
2023-04-28T18:01:06.576Z,2.95
2023-04-28T18:03:38.431Z,2.65
2023-04-28T18:06:07.493Z,1.48
2023-04-28T18:08:35.248Z,1.10
2023-04-28T18:11:02.233Z,1.95
2023-04-28T18:13:29.095Z,3.17
2023-04-28T18:15:55.992Z,1.38
2023-04-28T18:18:23.249Z,2.38
2023-04-28T18:20:57.136Z,2.72
2023-04-28T18:23:23.882Z,1.85
2023-04-28T18:25:50.632Z,1.48
2023-04-28T18:28:17.384Z,1.33
2023-04-28T18:30:44.076Z,1.13
2023-04-28T18:33:11.181Z,0.80
2023-04-28T18:35:38.147Z,3.65
2023-04-28T18:38:06.132Z,2.20
2023-04-28T18:40:34.418Z,1.88
2023-04-28T18:43:04.673Z,2.42
2023-04-28T18:45:43.861Z,1.05
2023-04-28T18:48:12.403Z,4.15
2023-04-28T18:50:39.376Z,0.88
2023-04-28T18:53:06.918Z,1.80
2023-04-28T18:55:34.119Z,2.47
2023-04-28T18:58:02.394Z,1.67
2023-04-28T19:00:29.396Z,2.20
2023-04-28T19:02:56.422Z,0.98
2023-04-28T19:05:23.305Z,2.10
2023-04-28T19:07:50.530Z,0.65
2023-04-28T19:10:17.549Z,1.30
2023-04-28T19:12:44.512Z,1.98
2023-04-28T19:15:11.368Z,2.35
2023-04-28T19:17:38.421Z,1.48
2023-04-28T19:20:05.926Z,1.75
2023-04-28T19:22:36.973Z,2.50
2023-04-28T19:25:04.818Z,1.63
2023-04-28T19:27:34.233Z,3.22
2023-04-28T19:30:02.465Z,3.83
2023-04-28T19:32:30.174Z,1.88
2023-04-28T19:34:57.247Z,1.10
2023-04-28T19:37:25.393Z,1.85
2023-04-28T19:39:52.503Z,2.22
2023-04-28T19:42:19.591Z,3.72
2023-04-28T19:44:47.391Z,5.60
2023-04-28T19:47:22.600Z,2.30
2023-04-28T19:49:51.187Z,2.22
2023-04-28T19:52:22.055Z,1.25
2023-04-28T19:54:49.665Z,2.65
2023-04-28T19:57:16.855Z,1.23
2023-04-28T19:59:43.675Z,2.88
2023-04-28T20:02:10.695Z,4.18
2023-04-28T20:04:38.125Z,1.55
2023-04-28T20:07:05.582Z,2.67
2023-04-28T20:09:38.929Z,3.63
2023-04-28T20:12:07.663Z,2.03
2023-04-28T20:14:35.547Z,1.60
2023-04-28T20:17:03.761Z,0.98
2023-04-28T20:19:31.039Z,1.23
2023-04-28T20:21:57.912Z,2.08
2023-04-28T20:24:24.626Z,3.80
2023-04-28T20:26:54.465Z,1.40
2023-04-28T20:29:21.878Z,1.85
2023-04-28T20:31:48.711Z,2.33
2023-04-28T20:34:15.578Z,3.15
2023-04-28T20:36:43.094Z,4.00
2023-04-28T20:39:11.649Z,2.63
2023-04-28T20:41:41.032Z,1.95
2023-04-28T20:44:08.440Z,2.42
2023-04-28T20:46:35.509Z,3.72
2023-04-28T20:49:04.515Z,2.55
2023-04-28T20:51:34.115Z,3.42
2023-04-28T20:54:01.503Z,1.25
2023-04-28T20:56:28.324Z,3.17
2023-04-28T20:58:55.839Z,4.55
2023-04-28T21:01:22.891Z,3.55
2023-04-28T21:03:50.083Z,5.32
2023-04-28T21:06:17.025Z,2.13
2023-04-28T21:08:43.992Z,2.88
2023-04-28T21:11:14.442Z,2.03
2023-04-28T21:13:43.055Z,2.55
2023-04-28T21:16:20.558Z,2.95
2023-04-28T21:18:49.318Z,3.55
2023-04-28T21:21:16.424Z,4.18
2023-04-28T21:23:43.369Z,5.50
2023-04-28T21:26:10.392Z,2.03
2023-04-28T21:28:37.233Z,2.92
2023-04-28T21:31:05.036Z,1.15
2023-04-28T21:33:32.373Z,1.95
2023-04-28T21:36:05.510Z,2.30
2023-04-28T21:38:32.603Z,3.53
2023-04-28T21:40:59.454Z,2.05
2023-04-28T21:43:26.408Z,2.92
2023-04-28T21:45:53.473Z,2.83
2023-04-28T21:48:21.415Z,3.10
2023-04-28T21:50:48.291Z,3.53
2023-04-28T21:53:15.081Z,3.50
2023-04-28T21:55:44.482Z,1.75
2023-04-28T21:58:11.721Z,1.80
2023-04-28T22:00:44.505Z,3.08
2023-04-28T22:03:12.481Z,2.80
2023-04-28T22:05:40.926Z,3.42
2023-04-28T22:08:07.925Z,1.52
2023-04-28T22:10:35.251Z,1.33
2023-04-28T22:13:02.501Z,2.80
2023-04-28T22:15:29.352Z,2.28
2023-04-28T22:17:56.471Z,2.63
2023-04-28T22:20:23.476Z,3.92
2023-04-28T22:22:51.264Z,2.85
2023-04-28T22:25:18.247Z,1.98
2023-04-28T22:27:45.125Z,5.13
2023-04-28T22:30:12.832Z,2.85
2023-04-28T22:32:39.688Z,3.35
2023-04-28T22:35:07.091Z,1.10
2023-04-28T22:37:34.153Z,1.83
2023-04-28T22:40:01.143Z,2.30
2023-04-28T22:42:29.080Z,2.67
2023-04-28T22:44:56.047Z,1.83
2023-04-28T22:47:23.272Z,4.78
2023-04-28T22:49:50.319Z,2.92
2023-04-28T22:52:20.358Z,6.28
2023-04-28T22:54:47.519Z,2.65
2023-04-28T22:57:14.427Z,3.85
2023-04-28T22:59:42.011Z,3.40
2023-04-28T23:02:11.221Z,2.13
2023-04-28T23:04:38.186Z,1.83
2023-04-28T23:07:06.128Z,4.03
2023-04-28T23:09:35.978Z,3.08
2023-04-28T23:12:03.613Z,3.15
2023-04-28T23:14:31.381Z,2.60
2023-04-28T23:16:58.201Z,2.67
2023-04-28T23:19:25.339Z,2.10
2023-04-28T23:21:52.257Z,2.33
2023-04-28T23:24:19.077Z,1.85
2023-04-28T23:26:45.927Z,3.30
2023-04-28T23:29:12.904Z,4.10
2023-04-28T23:31:40.186Z,7.60
2023-04-28T23:34:07.136Z,3.72
2023-04-28T23:36:34.215Z,1.35
2023-04-28T23:39:01.818Z,3.17
2023-04-28T23:41:28.787Z,1.40
2023-04-28T23:43:56.023Z,3.10
2023-04-28T23:46:23.309Z,1.63
2023-04-28T23:48:50.178Z,3.70
2023-04-28T23:51:16.988Z,2.15
2023-04-28T23:53:43.942Z,1.73
2023-04-28T23:56:10.953Z,1.55
2023-04-28T23:58:38.678Z,1.92
